Littleton, North Carolina
Current Conditions -  °F | °C
As of 2:35 PM on Saturday 25 Oct 2014 (Local Time) from KIXA Reporting Station
Clear Clear  
Wind Chill: 68°   Ceiling: Unl
Heat Index: 68°   Visibility: 10mi
Dew Point: 43°   Wind: 3mph
Humidity: 40%   Direction: 240°WSW
Pressure: 29.92"   Gusts: NA
Location:  36.43°N, 77.91°W
Report Text: KIXA 251835Z AUTO 24003KT 10SM CLR 20/06 A2992 RMK AO2
Loading
Personal Weather Stations






























Interactive Weather Map
Tropical Storm Tracking
New forecast layout! Learn more

10-Day Weather Forecast

Advertisements
Track Severe Weather on mobile